Time;durP1;ratioP1;P1;durP2;ratioP2;P2;SDS_P1;SDS_P2;PMS_P1;PMS_P2;Temp;Humidity;BMP_temperature;BMP_pressure;BME280_temperature;BME280_humidity;BME280_pressure;Samples;Min_cycle;Max_cycle;Signal;HPM_P1;HPM_P2
2021/09/11 00:02:07;;;;;;;35.90;25.47;;;;;;;16.10;87.94;100878.59;5030374;28;20203;-65
2021/09/11 00:04:36;;;;;;;19.87;10.73;;;;;;;16.07;88.37;100859.91;5030311;28;20713;-65
2021/09/11 00:07:05;;;;;;;48.07;34.87;;;;;;;16.18;88.44;100874.34;5030184;28;20257;-65
2021/09/11 00:09:33;;;;;;;19.30;8.47;;;;;;;16.15;89.42;100872.78;5030303;28;20268;-65
2021/09/11 00:12:01;;;;;;;14.57;7.50;;;;;;;16.10;89.06;100875.03;5030608;28;20673;-65
2021/09/11 00:14:29;;;;;;;27.23;21.87;;;;;;;16.24;88.31;100869.28;5030111;28;20253;-66
2021/09/11 00:16:57;;;;;;;17.87;8.70;;;;;;;15.71;89.04;100787.34;5030091;28;20199;-65
2021/09/11 00:19:26;;;;;;;19.93;13.23;;;;;;;16.30;88.35;100866.00;5045214;28;20242;-65
2021/09/11 00:21:55;;;;;;;19.50;9.03;;;;;;;16.31;88.34;100872.28;5028543;28;20191;-65
2021/09/11 00:24:23;;;;;;;22.40;16.60;;;;;;;16.35;87.95;100874.56;5029852;28;20214;-66
2021/09/11 00:26:51;;;;;;;20.03;12.60;;;;;;;16.26;88.34;100874.56;5030070;28;20826;-65
2021/09/11 00:29:19;;;;;;;19.20;10.57;;;;;;;16.27;88.18;100869.00;5029794;28;20203;-65
2021/09/11 00:31:47;;;;;;;27.23;23.43;;;;;;;16.30;87.73;100854.31;5029699;28;20211;-65
2021/09/11 00:34:15;;;;;;;17.37;8.20;;;;;;;16.29;87.96;100856.16;5030037;28;20201;-65
2021/09/11 00:36:44;;;;;;;15.97;8.10;;;;;;;16.37;86.69;100856.31;5029658;28;20202;-65
2021/09/11 00:39:12;;;;;;;18.23;8.13;;;;;;;16.43;85.76;100860.31;5029928;28;20207;-66
2021/09/11 00:41:41;;;;;;;16.40;7.80;;;;;;;16.23;86.56;100850.44;5029515;28;20206;-66
2021/09/11 00:44:09;;;;;;;13.97;7.43;;;;;;;16.35;85.85;100855.59;5027653;28;20207;-65
2021/09/11 00:46:37;;;;;;;13.43;7.70;;;;;;;16.41;85.68;100859.59;5029675;28;20606;-65
2021/09/11 00:49:05;;;;;;;18.93;8.07;;;;;;;16.36;85.34;100864.59;5027532;28;20654;-66
2021/09/11 00:51:33;;;;;;;26.47;7.80;;;;;;;16.14;86.74;100852.09;5030043;28;20198;-65
2021/09/11 00:54:03;;;;;;;13.57;7.37;;;;;;;16.17;86.61;100849.09;5030022;28;20194;-65
2021/09/11 00:56:33;;;;;;;12.63;6.97;;;;;;;16.26;85.62;100845.59;5029946;28;20238;-65
2021/09/11 00:59:02;;;;;;;12.17;6.63;;;;;;;16.22;86.65;100841.41;5029750;28;20198;-65
2021/09/11 01:01:31;;;;;;;13.50;7.27;;;;;;;16.14;86.73;100841.25;5031966;28;20677;-65
2021/09/11 01:04:00;;;;;;;24.03;7.60;;;;;;;16.11;86.63;100844.25;5030013;28;20244;-65
2021/09/11 01:06:28;;;;;;;12.90;7.27;;;;;;;16.11;86.60;100847.81;5028991;28;20209;-65
2021/09/11 01:08:56;;;;;;;19.17;7.80;;;;;;;16.12;86.13;100832.41;5029878;28;20191;-65
2021/09/11 01:11:26;;;;;;;12.37;6.53;;;;;;;16.15;86.44;100835.69;5027392;28;20207;-65
2021/09/11 01:13:55;;;;;;;21.87;7.47;;;;;;;16.10;86.81;100837.97;5028039;28;20223;-65
2021/09/11 01:16:23;;;;;;;18.30;6.73;;;;;;;16.03;87.25;100844.06;5029398;28;20261;-65
2021/09/11 01:18:51;;;;;;;38.70;8.60;;;;;;;15.81;87.32;100832.44;5028404;28;20234;-65
2021/09/11 01:21:19;;;;;;;17.07;7.60;;;;;;;16.02;87.00;100829.69;5029230;28;20206;-65
2021/09/11 01:23:48;;;;;;;18.07;7.80;;;;;;;16.04;87.01;100833.09;5029634;28;20194;-65
2021/09/11 01:26:16;;;;;;;22.53;8.03;;;;;;;16.04;86.52;100833.09;5029561;28;20203;-65
2021/09/11 01:28:45;;;;;;;16.07;7.80;;;;;;;16.10;86.14;100842.53;5027171;28;20614;-65
2021/09/11 01:31:13;;;;;;;19.13;7.70;;;;;;;15.92;86.94;100841.44;5029796;28;20253;-65
2021/09/11 01:33:41;;;;;;;15.07;7.63;;;;;;;15.98;87.18;100840.94;5029090;28;20223;-66
2021/09/11 01:36:09;;;;;;;17.67;7.27;;;;;;;15.97;86.84;100836.50;5028221;28;20281;-65
2021/09/11 01:38:37;;;;;;;16.37;7.67;;;;;;;16.03;86.84;100822.41;5028999;28;20256;-66
2021/09/11 01:41:06;;;;;;;14.37;7.57;;;;;;;16.05;86.96;100820.41;5029446;28;20198;-66
2021/09/11 01:43:35;;;;;;;16.63;7.57;;;;;;;16.09;86.66;100824.56;5044668;28;20268;-65
2021/09/11 01:46:03;;;;;;;15.47;6.97;;;;;;;16.14;86.06;100825.84;5044823;28;20290;-65
2021/09/11 01:48:31;;;;;;;19.17;7.67;;;;;;;16.18;86.04;100829.13;5029548;28;20245;-65
2021/09/11 01:50:59;;;;;;;16.60;7.77;;;;;;;16.17;86.17;100827.44;5029266;28;20199;-65
2021/09/11 01:53:27;;;;;;;15.33;7.67;;;;;;;16.18;85.80;100823.72;5029193;28;20226;-66
2021/09/11 01:55:55;;;;;;;13.40;7.43;;;;;;;16.21;85.61;100823.44;5029600;28;20555;-65
2021/09/11 01:58:24;;;;;;;15.67;8.13;;;;;;;16.26;85.12;100825.78;5028986;28;20271;-65
2021/09/11 02:00:52;;;;;;;11.97;7.13;;;;;;;16.29;84.38;100822.78;5029120;28;20204;-65
2021/09/11 02:03:21;;;;;;;18.03;7.50;;;;;;;16.26;84.95;100818.50;5032708;28;20211;-66
2021/09/11 02:05:49;;;;;;;18.07;8.20;;;;;;;16.22;84.69;100813.47;5032322;28;20286;-66
2021/09/11 02:08:17;;;;;;;14.00;7.33;;;;;;;16.22;84.36;100819.75;5032505;28;20249;-66
2021/09/11 02:10:45;;;;;;;16.03;7.50;;;;;;;16.25;83.82;100824.91;5030784;28;20197;-65
2021/09/11 02:13:13;;;;;;;14.00;6.97;;;;;;;16.15;84.62;100807.75;5033400;28;20721;-65
2021/09/11 02:15:42;;;;;;;23.53;7.30;;;;;;;16.07;84.94;100808.44;5031569;28;20206;-65
2021/09/11 02:18:10;;;;;;;35.47;8.37;;;;;;;16.02;84.91;100807.16;5032873;28;20288;-65
2021/09/11 02:20:39;;;;;;;48.90;7.80;;;;;;;15.95;85.21;100804.13;5032909;28;20202;-65
2021/09/11 02:23:07;;;;;;;23.77;7.13;;;;;;;15.82;86.32;100801.66;5032820;28;20206;-65
2021/09/11 02:25:35;;;;;;;30.00;8.20;;;;;;;15.90;86.02;100798.25;5033054;28;20818;-66
2021/09/11 02:28:03;;;;;;;48.50;7.97;;;;;;;15.75;85.01;100780.66;5031405;28;20267;-65
2021/09/11 02:30:31;;;;;;;14.63;6.83;;;;;;;15.97;84.87;100801.28;5032847;28;20666;-66
2021/09/11 02:33:00;;;;;;;14.07;7.03;;;;;;;16.02;84.73;100797.16;5027121;28;20295;-66
2021/09/11 02:35:29;;;;;;;20.17;7.33;;;;;;;16.00;85.28;100799.16;5032226;28;20787;-66
2021/09/11 02:37:57;;;;;;;29.60;7.23;;;;;;;15.98;84.72;100803.00;5033206;28;20198;-66
2021/09/11 02:40:25;;;;;;;12.73;7.00;;;;;;;16.04;84.63;100802.44;5032697;28;20626;-66
2021/09/11 02:42:53;;;;;;;14.30;7.10;;;;;;;16.06;83.27;100808.59;5031660;28;20606;-66
2021/09/11 02:45:21;;;;;;;18.57;7.67;;;;;;;15.95;84.43;100803.28;5033167;28;20214;-66
2021/09/11 02:47:49;;;;;;;18.83;6.93;;;;;;;15.88;85.54;100804.78;5033353;28;20214;-66
2021/09/11 02:50:18;;;;;;;46.23;7.67;;;;;;;15.77;85.67;100801.19;5033264;28;20241;-65
2021/09/11 02:52:46;;;;;;;13.90;7.03;;;;;;;15.85;85.17;100811.34;5033170;28;20202;-65
2021/09/11 02:55:15;;;;;;;13.80;6.93;;;;;;;15.84;85.24;100807.78;5033034;28;20234;-66
2021/09/11 02:57:43;;;;;;;13.57;7.57;;;;;;;15.63;85.76;100793.44;5032651;28;20218;-66
2021/09/11 03:00:12;;;;;;;29.53;7.07;;;;;;;15.71;85.56;100800.91;5032804;28;20203;-66
2021/09/11 03:02:40;;;;;;;37.07;7.50;;;;;;;15.74;85.26;100798.75;5032933;28;20715;-65
2021/09/11 03:05:09;;;;;;;15.90;7.20;;;;;;;15.80;84.95;100792.81;5032767;28;20201;-66
2021/09/11 03:07:39;;;;;;;24.10;7.20;;;;;;;15.73;85.85;100794.34;5032605;28;20206;-65
2021/09/11 03:10:08;;;;;;;14.53;6.87;;;;;;;15.80;85.33;100798.22;5032592;28;20570;-65
2021/09/11 03:12:36;;;;;;;24.33;7.03;;;;;;;15.32;85.30;100711.34;5032077;28;20526;-65
2021/09/11 03:15:04;;;;;;;11.80;6.40;;;;;;;15.87;84.35;100792.25;5032072;28;20226;-65
2021/09/11 03:17:33;;;;;;;18.50;8.07;;;;;;;15.80;84.63;100775.69;5032566;28;20234;-66
2021/09/11 03:20:02;;;;;;;15.77;7.23;;;;;;;15.86;84.91;100785.97;5032567;28;20207;-65
2021/09/11 03:22:30;;;;;;;32.47;7.47;;;;;;;15.78;85.34;100777.69;5032292;28;20560;-65
2021/09/11 03:24:59;;;;;;;18.57;7.27;;;;;;;15.70;85.61;100786.50;5032583;28;20202;-66
2021/09/11 03:27:27;;;;;;;29.47;7.30;;;;;;;15.64;85.45;100784.34;5025474;28;20258;-66
2021/09/11 03:29:55;;;;;;;18.33;7.83;;;;;;;15.70;85.34;100786.50;5028143;28;20199;-66
2021/09/11 03:32:24;;;;;;;26.93;6.67;;;;;;;15.72;85.26;100781.81;5031411;28;20206;-65
2021/09/11 03:34:52;;;;;;;25.00;6.57;;;;;;;15.72;85.12;100789.91;5031546;28;20225;-66
2021/09/11 03:37:20;;;;;;;11.03;6.50;;;;;;;15.79;84.31;100790.22;5031584;28;20564;-66
2021/09/11 03:39:48;;;;;;;12.13;6.40;;;;;;;15.82;84.70;100801.66;5032358;28;20613;-66
2021/09/11 03:42:17;;;;;;;39.17;7.27;;;;;;;15.78;84.34;100794.78;5030944;28;20203;-65
2021/09/11 03:44:45;;;;;;;13.10;7.00;;;;;;;15.75;84.36;100800.47;5032468;28;20547;-66
2021/09/11 03:47:13;;;;;;;16.70;7.07;;;;;;;15.73;85.14;100799.75;5032174;28;20203;-66
2021/09/11 03:49:41;;;;;;;22.63;7.40;;;;;;;15.61;85.17;100791.84;5031415;28;20202;-65
2021/09/11 03:52:09;;;;;;;16.97;7.33;;;;;;;15.57;85.54;100796.63;5032225;28;20606;-65
2021/09/11 03:54:37;;;;;;;19.30;6.93;;;;;;;15.51;85.77;100791.78;5047213;28;20230;-65
2021/09/11 03:57:06;;;;;;;17.33;6.63;;;;;;;15.52;85.68;100794.34;5032211;28;20210;-66
2021/09/11 03:59:36;;;;;;;15.87;7.47;;;;;;;15.58;85.69;100792.09;5031920;28;20205;-66
2021/09/11 04:02:04;;;;;;;20.20;7.33;;;;;;;15.57;85.62;100791.22;5031926;28;20732;-65
2021/09/11 04:04:33;;;;;;;15.43;7.20;;;;;;;15.66;84.84;100804.00;5046810;28;20206;-66
2021/09/11 04:07:01;;;;;;;14.43;7.30;;;;;;;15.68;84.67;100799.31;5047321;28;20661;-65
2021/09/11 04:09:29;;;;;;;23.13;7.60;;;;;;;15.70;84.51;100799.19;5031451;28;20645;-66
2021/09/11 04:11:57;;;;;;;20.93;6.90;;;;;;;15.72;84.92;100789.91;5031821;28;20199;-65
2021/09/11 04:14:25;;;;;;;15.70;6.97;;;;;;;15.69;84.96;100773.94;5031341;28;20230;-66
2021/09/11 04:16:54;;;;;;;14.43;6.67;;;;;;;15.76;84.24;100785.94;5031662;28;20272;-66
2021/09/11 04:19:22;;;;;;;20.70;6.80;;;;;;;15.72;84.70;100787.22;5031350;28;20390;-66
2021/09/11 04:21:51;;;;;;;15.00;6.60;;;;;;;15.58;85.42;100787.56;5031162;28;20206;-65
2021/09/11 04:24:19;;;;;;;11.53;6.03;;;;;;;15.61;85.10;100786.44;5030925;28;20194;-65
2021/09/11 04:26:47;;;;;;;15.63;6.73;;;;;;;15.61;85.11;100779.19;5031433;28;20206;-66
2021/09/11 04:29:15;;;;;;;17.93;6.23;;;;;;;15.66;85.17;100785.06;5031334;28;20217;-66
2021/09/11 04:31:43;;;;;;;21.10;6.70;;;;;;;15.59;85.09;100783.84;5031119;28;20202;-66
2021/09/11 04:34:13;;;;;;;27.10;6.23;;;;;;;15.48;85.81;100781.22;5030973;28;20230;-65
2021/09/11 04:36:41;;;;;;;29.80;6.83;;;;;;;15.40;86.23;100779.19;5030992;28;20255;-65
2021/09/11 04:39:09;;;;;;;22.80;6.80;;;;;;;15.27;87.26;100762.28;5031364;28;20261;-66
2021/09/11 04:41:37;;;;;;;23.83;6.23;;;;;;;15.27;87.29;100767.69;5030896;28;20210;-66
2021/09/11 04:44:05;;;;;;;1689.20;836.53;;;;;;;15.32;86.81;100764.63;5030999;28;20191;-65
2021/09/11 04:46:33;;;;;;;156.73;94.17;;;;;;;15.40;86.65;100772.91;5030883;28;20217;-65
2021/09/11 04:49:01;;;;;;;31.27;12.53;;;;;;;15.43;86.62;100780.78;5030840;28;20240;-66
2021/09/11 04:51:30;;;;;;;33.57;16.67;;;;;;;15.37;86.84;100757.81;5030653;28;20206;-65
2021/09/11 04:53:58;;;;;;;39.70;31.33;;;;;;;15.57;88.37;100780.41;5030853;28;20211;-65
2021/09/11 04:56:26;;;;;;;26.07;13.57;;;;;;;15.64;87.87;100781.63;5030505;28;20657;-65
2021/09/11 04:58:54;;;;;;;29.83;21.33;;;;;;;15.73;87.47;100769.97;5030681;28;20290;-65
2021/09/11 05:01:22;;;;;;;20.23;7.40;;;;;;;15.72;87.27;100778.22;5030200;28;20654;-65
2021/09/11 05:03:51;;;;;;;12.17;6.87;;;;;;;15.77;86.91;100776.81;5026858;28;20444;-65
2021/09/11 05:06:19;;;;;;;32.43;6.30;;;;;;;15.74;87.01;100782.53;5022947;28;20206;-66
2021/09/11 05:08:48;;;;;;;21.13;6.80;;;;;;;15.74;86.81;100771.69;5030301;28;20198;-66
2021/09/11 05:11:16;;;;;;;17.73;6.90;;;;;;;15.70;86.33;100775.66;5025420;28;20575;-65
2021/09/11 05:13:44;;;;;;;22.83;14.40;;;;;;;15.62;86.65;100780.91;5030145;28;20294;-66
2021/09/11 05:16:12;;;;;;;15.60;7.73;;;;;;;15.64;86.85;100783.47;5030598;28;20226;-65
2021/09/11 05:18:40;;;;;;;28.60;6.70;;;;;;;15.67;86.65;100769.66;5030292;28;20693;-66
2021/09/11 05:21:09;;;;;;;12.80;5.87;;;;;;;15.53;86.98;100771.69;5030548;28;20210;-65
2021/09/11 05:23:37;;;;;;;10.67;5.87;;;;;;;15.56;87.08;100773.28;5026353;28;20259;-65
2021/09/11 05:26:06;;;;;;;17.73;6.90;;;;;;;15.58;86.96;100776.72;5029263;28;20195;-65
2021/09/11 05:28:34;;;;;;;10.47;6.10;;;;;;;15.62;86.48;100783.63;5030004;28;20214;-66
2021/09/11 05:31:03;;;;;;;12.20;6.30;;;;;;;15.66;87.01;100776.06;5028939;28;20249;-65
2021/09/11 05:33:31;;;;;;;12.13;6.57;;;;;;;15.72;86.35;100781.81;5029423;28;20197;-65
2021/09/11 05:35:59;;;;;;;12.07;6.07;;;;;;;15.78;86.58;100775.84;5028930;28;20222;-65
2021/09/11 05:38:27;;;;;;;10.00;5.67;;;;;;;15.86;85.68;100783.25;5028890;28;20234;-66
2021/09/11 05:40:55;;;;;;;12.20;6.30;;;;;;;15.87;85.47;100782.28;5030080;28;20206;-66
2021/09/11 05:43:24;;;;;;;19.47;5.83;;;;;;;15.84;85.57;100782.53;5028832;28;20207;-65
2021/09/11 05:45:53;;;;;;;15.27;5.30;;;;;;;15.66;85.48;100749.00;5024614;28;20210;-66
2021/09/11 05:48:21;;;;;;;8.90;5.27;;;;;;;15.71;86.06;100788.22;5022374;28;20206;-66
2021/09/11 05:50:49;;;;;;;12.40;5.60;;;;;;;15.74;86.09;100785.22;5029199;28;20535;-66
2021/09/11 05:53:17;;;;;;;10.13;5.43;;;;;;;15.65;86.96;100790.59;5030139;28;20213;-66
2021/09/11 05:55:45;;;;;;;14.80;5.50;;;;;;;15.59;86.54;100793.81;5029693;28;20257;-66
2021/09/11 05:58:13;;;;;;;10.13;5.93;;;;;;;15.60;86.48;100790.13;5030206;28;20241;-66
2021/09/11 06:00:42;;;;;;;17.03;5.03;;;;;;;15.64;86.70;100802.44;5029588;28;20690;-66
2021/09/11 06:03:11;;;;;;;12.23;5.73;;;;;;;15.67;86.33;100796.75;5028720;28;20202;-66
2021/09/11 06:05:39;;;;;;;10.33;5.73;;;;;;;15.75;85.63;100796.91;5027840;28;20260;-65
2021/09/11 06:08:07;;;;;;;10.07;5.87;;;;;;;15.82;85.42;100796.22;5027227;28;20650;-65
2021/09/11 06:10:35;;;;;;;12.00;6.43;;;;;;;15.81;85.35;100793.66;5026940;28;20211;-65
2021/09/11 06:13:04;;;;;;;13.43;6.20;;;;;;;15.83;85.70;100797.09;5028195;28;20202;-65
2021/09/11 06:15:32;;;;;;;10.07;5.80;;;;;;;15.77;85.44;100793.06;5027976;28;20210;-65
2021/09/11 06:18:01;;;;;;;16.73;5.60;;;;;;;15.68;86.50;100783.06;5028166;28;20226;-65
2021/09/11 06:20:29;;;;;;;9.60;5.63;;;;;;;15.64;85.97;100783.47;5025772;28;20245;-65
2021/09/11 06:22:57;;;;;;;11.67;5.73;;;;;;;15.61;86.11;100781.91;5026930;28;20615;-65
2021/09/11 06:25:25;;;;;;;11.70;5.80;;;;;;;15.74;85.81;100797.91;5027210;28;20671;-65
2021/09/11 06:27:55;;;;;;;9.63;6.00;;;;;;;15.82;84.94;100787.25;5025614;28;20207;-65
2021/09/11 06:30:24;;;;;;;16.10;6.00;;;;;;;15.49;86.05;100750.44;5027076;28;20415;-65
2021/09/11 06:32:52;;;;;;;11.50;5.60;;;;;;;15.63;86.06;100792.59;5025916;28;20249;-65
2021/09/11 06:35:22;;;;;;;16.10;5.53;;;;;;;15.74;86.12;100801.47;5026338;28;20643;-65
2021/09/11 06:37:51;;;;;;;13.17;5.93;;;;;;;15.32;85.67;100713.22;5026081;28;20677;-65
2021/09/11 06:40:19;;;;;;;10.63;5.60;;;;;;;15.80;85.51;100787.38;5024438;28;20215;-66
2021/09/11 06:42:48;;;;;;;17.23;5.50;;;;;;;15.67;86.74;100791.34;5019915;28;20199;-66
2021/09/11 06:45:17;;;;;;;33.57;6.30;;;;;;;15.64;86.54;100784.34;5021705;28;20199;-65
2021/09/11 06:47:45;;;;;;;29.37;6.37;;;;;;;15.57;86.99;100795.78;5028592;28;20206;-65
2021/09/11 06:50:13;;;;;;;15.07;6.43;;;;;;;15.72;86.25;100794.47;5028021;28;20203;-65
2021/09/11 06:52:42;;;;;;;10.27;5.43;;;;;;;15.73;86.12;100793.50;5028760;28;20214;-65
2021/09/11 06:55:11;;;;;;;17.73;6.63;;;;;;;15.73;86.23;100793.50;5025901;28;20252;-66
2021/09/11 06:57:39;;;;;;;12.47;6.60;;;;;;;15.18;86.50;100720.66;5029698;28;20206;-65
2021/09/11 07:00:09;;;;;;;11.60;6.10;;;;;;;15.77;85.95;100803.06;5027866;28;20199;-66
2021/09/11 07:02:37;;;;;;;31.87;6.47;;;;;;;15.71;85.93;100793.63;5029354;28;20211;-65
2021/09/11 07:05:06;;;;;;;18.90;6.27;;;;;;;15.73;86.29;100794.34;5028151;28;20199;-66
2021/09/11 07:07:34;;;;;;;12.47;6.07;;;;;;;15.72;86.15;100800.75;5013187;28;20252;-65
2021/09/11 07:10:06;;;;;;;10.13;5.93;;;;;;;15.83;85.64;100803.34;5013399;28;20650;-65
2021/09/11 07:12:34;;;;;;;14.70;6.03;;;;;;;15.77;86.57;100800.34;5013235;28;20214;-65
2021/09/11 07:15:02;;;;;;;12.37;5.80;;;;;;;15.53;86.70;100782.53;5012804;28;20296;-65
2021/09/11 07:17:31;;;;;;;14.80;6.00;;;;;;;15.59;87.06;100805.50;5026066;28;20237;-65
2021/09/11 07:19:59;;;;;;;8.90;5.47;;;;;;;15.66;86.50;100809.44;5026806;28;20593;-65
2021/09/11 07:22:27;;;;;;;7.63;4.80;;;;;;;15.70;87.07;100812.72;5026211;28;20708;-65
2021/09/11 07:24:55;;;;;;;6.73;4.80;;;;;;;15.67;86.65;100803.03;5025472;28;20677;-65
2021/09/11 07:27:25;;;;;;;7.87;4.90;;;;;;;15.66;86.62;100814.84;5027811;28;20198;-65
2021/09/11 07:29:53;;;;;;;7.17;4.53;;;;;;;15.70;86.56;100802.75;5026028;28;20202;-65
2021/09/11 07:32:21;;;;;;;9.17;5.30;;;;;;;15.73;86.79;100798.91;5026805;28;20203;-65
2021/09/11 07:34:49;;;;;;;7.67;5.00;;;;;;;15.60;87.40;100801.81;5026314;28;20922;-66
2021/09/11 07:37:17;;;;;;;6.60;4.70;;;;;;;15.65;87.56;100810.41;5026384;28;20223;-65
2021/09/11 07:39:47;;;;;;;8.07;5.03;;;;;;;15.65;87.11;100805.00;5025047;28;20217;-66
2021/09/11 07:42:15;;;;;;;6.97;4.83;;;;;;;15.63;87.15;100798.88;5027017;28;20654;-65
2021/09/11 07:44:45;;;;;;;7.23;4.87;;;;;;;15.62;87.05;100801.72;5043161;28;20207;-65
2021/09/11 07:47:13;;;;;;;8.17;4.83;;;;;;;15.53;87.06;100784.38;5025929;28;20265;-65
2021/09/11 07:49:41;;;;;;;7.03;4.53;;;;;;;15.74;87.02;100806.88;5026211;28;20213;-65
2021/09/11 07:52:09;;;;;;;6.80;4.67;;;;;;;15.77;87.04;100816.59;5025370;28;20253;-65
2021/09/11 07:54:37;;;;;;;7.93;4.70;;;;;;;15.90;86.25;100816.34;5024630;28;20596;-65
2021/09/11 07:57:06;;;;;;;8.33;4.87;;;;;;;15.94;85.69;100820.53;5027326;28;20288;-65
2021/09/11 07:59:35;;;;;;;7.07;4.73;;;;;;;16.05;85.60;100825.84;5025831;28;20199;-65
2021/09/11 08:02:05;;;;;;;8.50;5.20;;;;;;;15.37;85.45;100690.16;5027985;28;20207;-65
2021/09/11 08:04:33;;;;;;;7.43;4.80;;;;;;;16.17;85.12;100822.00;5026582;28;20231;-65
2021/09/11 08:07:01;;;;;;;11.10;5.00;;;;;;;16.24;85.12;100815.06;5026262;28;20186;-66
2021/09/11 08:09:29;;;;;;;7.63;4.97;;;;;;;16.28;85.49;100821.91;5020873;28;20256;-65
2021/09/11 08:11:58;;;;;;;8.10;4.50;;;;;;;16.21;85.68;100823.44;5025206;28;20233;-66
2021/09/11 08:14:25;;;;;;;6.43;4.40;;;;;;;16.27;84.53;100828.34;5024655;28;20620;-66
2021/09/11 08:16:54;;;;;;;6.80;4.57;;;;;;;16.28;84.18;100805.66;5025543;28;20217;-65
2021/09/11 08:19:23;;;;;;;7.23;4.90;;;;;;;16.33;85.41;100821.50;5023059;28;20231;-66
2021/09/11 08:21:51;;;;;;;6.53;4.60;;;;;;;16.26;85.00;100828.47;5026504;28;20284;-66
2021/09/11 08:24:19;;;;;;;8.70;4.93;;;;;;;16.23;85.14;100829.63;5025539;28;20253;-66
2021/09/11 08:26:47;;;;;;;8.77;5.30;;;;;;;16.32;84.83;100826.06;5026167;28;20190;-66
2021/09/11 08:29:15;;;;;;;7.93;4.77;;;;;;;16.39;84.84;100819.06;5040236;28;20211;-66
2021/09/11 08:31:43;;;;;;;7.10;4.43;;;;;;;16.35;85.41;100831.19;5024875;28;20618;-66
2021/09/11 08:34:12;;;;;;;8.10;5.00;;;;;;;16.36;85.61;100823.94;5019992;28;20211;-66
2021/09/11 08:36:41;;;;;;;5.37;4.17;;;;;;;16.38;85.61;100827.34;5028097;28;20215;-66
2021/09/11 08:39:26;;;;;;;6.63;4.23;;;;;;;16.53;85.23;100819.66;5026832;28;20281;-66
2021/09/11 08:41:54;;;;;;;5.73;4.00;;;;;;;16.33;85.01;100783.56;5027438;28;20205;-66
2021/09/11 08:44:24;;;;;;;6.50;4.37;;;;;;;16.66;85.07;100825.72;5028677;28;20190;-66
2021/09/11 08:46:52;;;;;;;6.43;4.40;;;;;;;16.30;85.33;100790.13;5027065;28;20195;-66
2021/09/11 08:49:21;;;;;;;7.20;4.73;;;;;;;16.55;85.26;100823.13;5028475;28;20463;-66
2021/09/11 08:51:51;;;;;;;5.03;4.00;;;;;;;16.53;84.80;100825.09;5028161;28;20194;-66
2021/09/11 08:54:20;;;;;;;5.03;3.63;;;;;;;16.57;85.07;100821.13;5027191;28;20195;-66
2021/09/11 08:56:50;;;;;;;5.70;4.17;;;;;;;16.71;84.63;100820.72;5028169;28;20702;-66
2021/09/11 08:59:19;;;;;;;5.47;3.97;;;;;;;16.92;83.93;100817.88;5027709;28;20228;-66
2021/09/11 09:02:06;;;;;;;6.53;3.93;;;;;;;16.87;83.88;100793.91;5024003;28;20569;-66
2021/09/11 09:04:46;;;;;;;5.07;3.87;;;;;;;16.75;83.00;100781.47;5027276;28;20577;-65
2021/09/11 09:07:29;;;;;;;5.27;4.10;;;;;;;16.94;83.38;100816.75;5022862;28;20205;-66
2021/09/11 09:09:58;;;;;;;6.20;4.10;;;;;;;16.93;84.31;100809.59;5027365;28;20198;-65
2021/09/11 09:12:31;;;;;;;6.07;3.97;;;;;;;17.06;83.65;100812.88;5025648;28;20210;-65
2021/09/11 09:15:06;;;;;;;5.83;4.00;;;;;;;17.15;82.95;100810.31;5023156;28;20198;-65
2021/09/11 09:17:46;;;;;;;7.97;4.07;;;;;;;17.20;82.64;100799.88;5024308;28;20236;-65
2021/09/11 09:20:16;;;;;;;6.33;4.40;;;;;;;17.28;82.67;100814.41;5024831;28;20209;-66
2021/09/11 09:22:48;;;;;;;7.30;4.40;;;;;;;17.08;82.59;100775.59;5040995;28;20199;-66
2021/09/11 09:25:21;;;;;;;5.17;4.10;;;;;;;17.16;82.33;100771.31;5025202;28;20274;-65
2021/09/11 09:27:51;;;;;;;6.80;4.50;;;;;;;16.55;82.41;100650.44;5023943;28;20198;-65
2021/09/11 09:30:21;;;;;;;7.20;4.23;;;;;;;17.42;82.44;100791.38;5023612;28;20744;-65
2021/09/11 09:32:51;;;;;;;5.27;4.07;;;;;;;17.38;82.17;100766.38;5027264;28;20213;-66
2021/09/11 09:35:25;;;;;;;6.47;4.27;;;;;;;17.53;82.58;100796.66;5027937;28;20252;-65
2021/09/11 09:37:56;;;;;;;5.33;4.00;;;;;;;17.54;82.81;100792.94;5028374;28;20587;-64
2021/09/11 09:40:35;;;;;;;6.07;4.30;;;;;;;17.49;81.95;100746.34;5026812;28;20214;-64
2021/09/11 09:43:04;;;;;;;4.93;3.77;;;;;;;18.02;81.51;100788.31;5029009;28;20494;-64
2021/09/11 09:45:34;;;;;;;5.57;4.30;;;;;;;18.21;79.94;100771.91;5026139;28;20253;-64
2021/09/11 09:48:04;;;;;;;5.23;4.30;;;;;;;18.46;79.80;100778.47;5027036;28;20195;-64
2021/09/11 09:50:34;;;;;;;4.67;3.90;;;;;;;18.68;78.47;100778.06;5025391;28;20246;-64
2021/09/11 09:53:05;;;;;;;5.20;4.07;;;;;;;18.79;78.09;100769.66;5024100;28;20199;-64
2021/09/11 09:55:33;;;;;;;4.93;4.00;;;;;;;18.78;78.11;100773.41;5028010;28;20214;-65
2021/09/11 09:58:02;;;;;;;4.33;3.67;;;;;;;18.84;78.48;100772.75;5028503;28;20269;-64
2021/09/11 10:00:30;;;;;;;4.80;3.83;;;;;;;18.84;77.49;100766.47;5027349;28;20209;-64
2021/09/11 10:02:58;;;;;;;7.07;4.07;;;;;;;18.93;77.48;100770.94;5026768;28;20198;-64
2021/09/11 10:05:30;;;;;;;4.70;3.93;;;;;;;18.99;77.71;100766.78;5027173;28;20278;-67
2021/09/11 10:08:02;;;;;;;5.17;4.17;;;;;;;19.12;77.49;100765.34;5027012;28;20203;-69
2021/09/11 10:10:34;;;;;;;8.67;4.07;;;;;;;19.08;76.88;100736.72;5027836;28;20723;-69
2021/09/11 10:13:07;;;;;;;8.57;4.10;;;;;;;19.19;76.43;100763.69;5026683;28;20202;-70
2021/09/11 10:15:36;;;;;;;5.50;4.03;;;;;;;19.16;76.96;100755.84;5039327;28;20211;-69
2021/09/11 10:18:26;;;;;;;6.70;4.50;;;;;;;19.21;76.73;100752.63;5027815;28;20246;-69
2021/09/11 10:21:15;;;;;;;6.00;4.10;;;;;;;19.46;75.67;100753.66;5018128;28;20253;-70
2021/09/11 10:23:45;;;;;;;5.03;4.13;;;;;;;19.47;76.18;100753.47;5026779;28;20203;-70
2021/09/11 10:26:49;;;;;;;6.17;4.17;;;;;;;19.30;75.75;100751.69;5030301;28;20922;-69
2021/09/11 10:29:50;;;;;;;5.20;4.10;;;;;;;18.85;76.35;100676.50;5029273;28;20195;-69
2021/09/11 10:32:35;;;;;;;5.63;4.07;;;;;;;19.22;76.99;100743.44;5031290;28;20202;-69
2021/09/11 10:35:05;;;;;;;4.90;4.17;;;;;;;18.88;76.94;100670.72;5028235;28;20215;-69
2021/09/11 10:37:38;;;;;;;5.20;4.03;;;;;;;19.47;76.45;100750.75;5028444;28;20604;-69
2021/09/11 10:40:30;;;;;;;4.73;3.93;;;;;;;19.49;76.52;100750.59;5029536;28;20202;-69
2021/09/11 10:43:14;;;;;;;6.23;4.50;;;;;;;19.40;76.25;100746.97;5031991;28;20205;-68
2021/09/11 10:45:44;;;;;;;5.17;3.90;;;;;;;19.41;76.62;100742.38;5030445;28;20202;-69
2021/09/11 10:48:34;;;;;;;5.73;4.27;;;;;;;19.53;75.91;100747.41;5031051;28;20838;-69
2021/09/11 10:51:13;;;;;;;6.57;4.73;;;;;;;19.26;75.65;100709.44;5029957;28;20195;-69
2021/09/11 10:54:00;;;;;;;6.67;4.70;;;;;;;19.47;75.25;100747.19;5031063;28;20203;-69
2021/09/11 10:56:29;;;;;;;7.47;4.93;;;;;;;19.58;75.90;100740.63;5032223;28;20203;-70
2021/09/11 10:59:27;;;;;;;5.70;4.77;;;;;;;19.68;75.85;100744.97;5041200;28;20215;-69
2021/09/11 11:02:04;;;;;;;6.20;4.80;;;;;;;19.82;75.12;100746.19;5025117;28;20257;-69
2021/09/11 11:04:35;;;;;;;8.30;4.47;;;;;;;19.75;74.20;100745.16;5031396;28;20199;-69
2021/09/11 11:07:05;;;;;;;5.67;4.63;;;;;;;19.75;74.86;100735.09;5032087;28;20195;-69
2021/09/11 11:09:38;;;;;;;5.33;4.33;;;;;;;19.74;75.19;100730.66;5030881;28;20198;-69
2021/09/11 11:12:07;;;;;;;7.07;4.60;;;;;;;19.85;74.62;100729.50;5031475;28;20217;-69
2021/09/11 11:14:44;;;;;;;5.30;4.33;;;;;;;19.93;74.79;100731.44;5046490;28;20739;-70
2021/09/11 11:17:13;;;;;;;7.43;4.50;;;;;;;19.94;74.81;100728.53;5031333;28;20221;-69
2021/09/11 11:19:44;;;;;;;6.00;4.57;;;;;;;20.00;74.51;100724.31;5029350;28;20219;-69
2021/09/11 11:22:14;;;;;;;5.73;4.40;;;;;;;20.16;74.34;100727.91;5022602;28;20272;-69
2021/09/11 11:24:45;;;;;;;6.00;4.90;;;;;;;20.22;74.35;100723.69;5025008;28;20206;-69
2021/09/11 11:27:15;;;;;;;5.77;4.83;;;;;;;20.40;74.53;100720.84;5026171;28;20245;-69
2021/09/11 11:29:46;;;;;;;7.17;4.60;;;;;;;20.52;73.91;100721.38;5025239;28;20854;-70
2021/09/11 11:32:15;;;;;;;5.00;4.10;;;;;;;20.62;74.42;100714.72;5026975;28;20209;-70